Time;durP1;ratioP1;P1;durP2;ratioP2;P2;SDS_P1;SDS_P2;PMS_P1;PMS_P2;Temp;Humidity;BMP_temperature;BMP_pressure;BME280_temperature;BME280_humidity;BME280_pressure;Samples;Min_cycle;Max_cycle;Signal;HPM_P1;HPM_P2
2023/05/15 00:00:13;;;;;;;0.20;0.20;;;;;;;11.35;100.00;99199.00;4879698;29;20041;-89
2023/05/15 00:02:42;;;;;;;0.13;0.13;;;;;;;11.44;100.00;99191.44;4970390;23;20194;-93
2023/05/15 00:05:08;;;;;;;0.45;0.45;;;;;;;11.44;100.00;99199.00;4909479;29;20044;-93
2023/05/15 00:07:34;;;;;;;0.32;0.32;;;;;;;11.39;100.00;99188.50;4897878;29;20064;-94
2023/05/15 00:10:00;;;;;;;0.88;0.57;;;;;;;11.39;100.00;99196.81;4881198;29;20043;-94
2023/05/15 00:12:26;;;;;;;0.80;0.80;;;;;;;11.37;100.00;99202.84;4896256;29;20040;-95
2023/05/15 00:14:51;;;;;;;0.10;0.10;;;;;;;11.42;100.00;99223.66;4894236;29;20146;-94
2023/05/15 00:17:17;;;;;;;0.57;0.43;;;;;;;11.45;100.00;99217.19;4894601;29;20040;-95
2023/05/15 00:19:43;;;;;;;0.20;0.10;;;;;;;11.46;100.00;99215.94;4900582;29;20077;-94
2023/05/15 00:22:09;;;;;;;0.20;0.20;;;;;;;11.45;100.00;99200.50;4893882;29;20051;-95
2023/05/15 00:24:34;;;;;;;0.22;0.22;;;;;;;11.37;100.00;99194.50;4900706;29;20170;-95
2023/05/15 00:27:00;;;;;;;0.03;0.03;;;;;;;11.34;100.00;99211.31;4890914;29;20048;-95
2023/05/15 00:29:26;;;;;;;0.70;0.70;;;;;;;11.20;100.00;99198.84;4903700;29;20092;-95
2023/05/15 00:31:52;;;;;;;0.77;0.77;;;;;;;11.29;100.00;99198.03;4895031;29;20112;-94
2023/05/15 00:34:17;;;;;;;0.45;0.45;;;;;;;11.39;100.00;99196.81;4900373;29;20036;-95
2023/05/15 00:36:43;;;;;;;0.30;0.30;;;;;;;11.31;100.00;99196.38;4881234;29;20081;-95
2023/05/15 00:39:10;;;;;;;1.40;0.93;;;;;;;11.22;100.00;99179.69;4900045;29;20059;-94
2023/05/15 00:41:36;;;;;;;0.95;0.95;;;;;;;11.49;100.00;99226.13;4878097;29;20482;-94
2023/05/15 00:44:04;;;;;;;0.52;0.52;;;;;;;11.45;100.00;99215.19;4903765;29;20048;-96
2023/05/15 00:46:31;;;;;;;0.00;0.00;;;;;;;11.32;100.00;99184.03;4912902;29;20051;-94
2023/05/15 00:48:57;;;;;;;0.32;0.32;;;;;;;11.39;100.00;99185.72;4901634;29;20043;-93
2023/05/15 00:51:24;;;;;;;0.45;0.25;;;;;;;11.49;100.00;99204.69;4910728;29;20054;-94
2023/05/15 00:53:55;;;;;;;0.60;0.60;;;;;;;11.48;100.00;99191.28;4897032;29;20756;-93
2023/05/15 00:56:21;;;;;;;0.00;0.00;;;;;;;11.43;100.00;99175.22;4895873;29;20044;-95
2023/05/15 00:58:48;;;;;;;0.13;0.13;;;;;;;11.45;100.00;99183.84;4900325;29;20066;-94
2023/05/15 01:01:15;;;;;;;0.10;0.10;;;;;;;11.44;100.00;99202.53;4895318;29;20051;-94
2023/05/15 01:03:41;;;;;;;1.55;0.95;;;;;;;11.45;100.00;99204.06;4861420;29;20075;-95
2023/05/15 01:06:09;;;;;;;0.20;0.20;;;;;;;11.44;100.00;99204.53;4866874;29;20151;-95
2023/05/15 01:08:43;;;;;;;1.85;0.35;;;;;;;11.40;100.00;99188.03;4862910;29;20049;-94
2023/05/15 01:11:10;;;;;;;;;;;;;;;11.40;100.00;99198.38;4882350;29;20080;-95
2023/05/15 01:13:35;;;;;;;0.00;0.00;;;;;;;11.39;100.00;99194.81;4873792;29;19942;-94
2023/05/15 01:16:01;;;;;;;0.38;0.38;;;;;;;11.37;100.00;99202.84;4863386;29;20044;-95
2023/05/15 01:18:31;;;;;;;1.70;1.60;;;;;;;11.22;100.00;99188.81;4867611;29;20047;-96
2023/05/15 01:21:24;;;;;;;0.32;0.28;;;;;;;11.30;100.00;99205.91;4884231;29;20052;-94
2023/05/15 01:24:25;;;;;;;0.45;0.45;;;;;;;11.16;100.00;99185.06;4898785;29;20048;-94
2023/05/15 01:27:26;;;;;;;0.08;0.08;;;;;;;11.31;100.00;99190.03;4863233;29;20094;-94
2023/05/15 01:30:12;;;;;;;0.10;0.10;;;;;;;10.99;100.00;99147.78;4871686;29;20057;-96
2023/05/15 01:33:02;;;;;;;0.88;0.75;;;;;;;11.31;100.00;99201.16;4881675;29;20032;-95
2023/05/15 01:35:40;;;;;;;0.20;0.10;;;;;;;11.03;100.00;99142.84;4892111;29;20040;-95
2023/05/15 01:38:30;;;;;;;0.28;0.28;;;;;;;11.31;100.00;99181.72;4863609;29;20076;-96
2023/05/15 01:41:15;;;;;;;0.00;0.00;;;;;;;11.19;100.00;99167.53;4889945;29;20582;-96
2023/05/15 01:43:44;;;;;;;0.40;0.40;;;;;;;11.31;100.00;99184.47;4875149;29;20036;-95
2023/05/15 01:46:15;;;;;;;4.90;0.52;;;;;;;11.34;100.00;99180.78;4863800;29;20516;-95
2023/05/15 01:48:43;;;;;;;0.10;0.08;;;;;;;11.07;100.00;99142.69;4886328;29;20051;-96
2023/05/15 01:51:09;;;;;;;0.30;0.30;;;;;;;11.30;100.00;99160.72;4870500;29;21187;-96
2023/05/15 01:53:36;;;;;;;0.28;0.15;;;;;;;11.33;100.00;99159.78;4882014;29;20622;-94
2023/05/15 01:56:04;;;;;;;0.05;0.05;;;;;;;11.30;100.00;99163.50;4866744;29;20485;-94
2023/05/15 01:58:31;;;;;;;0.88;0.45;;;;;;;11.36;100.00;99179.09;4875617;29;20524;-95
2023/05/15 02:00:59;;;;;;;0.10;0.10;;;;;;;11.38;100.00;99184.94;4872864;29;20049;-94
2023/05/15 02:03:25;;;;;;;2.08;1.55;;;;;;;11.10;100.00;99138.97;4876919;29;20523;-95
2023/05/15 02:05:52;;;;;;;1.02;0.20;;;;;;;11.08;100.00;99139.44;4872973;29;20044;-94
2023/05/15 02:08:18;;;;;;;0.55;0.55;;;;;;;11.05;100.00;99129.25;4869456;29;20055;-95
2023/05/15 02:10:44;;;;;;;0.40;0.40;;;;;;;11.08;100.00;99128.34;4887641;29;20047;-95
2023/05/15 02:13:11;;;;;;;0.20;0.17;;;;;;;11.02;100.00;99113.53;4891209;29;20036;-95
2023/05/15 02:15:37;;;;;;;0.75;0.75;;;;;;;11.27;100.00;99150.56;4874673;29;20040;-96
2023/05/15 02:18:03;;;;;;;1.13;1.02;;;;;;;11.27;100.00;99145.00;4875038;29;20044;-94
2023/05/15 02:20:29;;;;;;;0.10;0.10;;;;;;;11.11;100.00;99124.66;4879630;29;20052;-95
2023/05/15 02:22:55;;;;;;;0.10;0.10;;;;;;;11.14;100.00;99118.16;4870914;29;20048;-95
2023/05/15 02:25:32;;;;;;;0.28;0.28;;;;;;;11.24;100.00;99118.94;4878252;29;20032;-94
2023/05/15 02:28:00;;;;;;;0.45;0.20;;;;;;;11.18;100.00;99120.78;4871465;29;20051;-96
2023/05/15 02:30:37;;;;;;;0.52;0.32;;;;;;;11.02;100.00;99096.91;4881854;29;20024;-95
2023/05/15 02:33:43;;;;;;;1.65;1.55;;;;;;;11.15;100.00;99128.03;4875783;29;20047;-95
2023/05/15 02:36:10;;;;;;;0.40;0.40;;;;;;;11.15;100.00;99143.94;4898591;29;20135;-96
2023/05/15 02:38:51;;;;;;;0.55;0.55;;;;;;;11.08;100.00;99133.88;4884034;29;20429;-96
2023/05/15 02:41:18;;;;;;;0.00;0.00;;;;;;;11.14;100.00;99154.25;4888514;29;20047;-95
2023/05/15 02:43:45;;;;;;;0.20;0.20;;;;;;;11.04;100.00;99149.16;4879296;29;20036;-94
2023/05/15 02:46:13;;;;;;;0.43;0.38;;;;;;;11.06;100.00;99158.56;4867912;29;20045;-96
2023/05/15 02:48:40;;;;;;;0.98;0.90;;;;;;;11.06;100.00;99166.88;4873100;29;20048;-96
2023/05/15 02:51:06;;;;;;;1.05;1.05;;;;;;;10.92;100.00;99148.06;4870036;29;20059;-94
2023/05/15 02:53:32;;;;;;;1.02;0.68;;;;;;;10.98;100.00;99145.44;4882536;29;20044;-95
2023/05/15 02:55:58;;;;;;;0.13;0.13;;;;;;;11.02;100.00;99135.75;4878810;29;20036;-94
2023/05/15 02:58:24;;;;;;;0.13;0.13;;;;;;;11.06;100.00;99153.00;4868696;29;20040;-93
2023/05/15 03:00:49;;;;;;;1.65;1.35;;;;;;;10.97;100.00;99125.25;4884128;29;20108;-94
2023/05/15 03:03:15;;;;;;;0.73;0.73;;;;;;;10.86;100.00;99099.97;4881082;29;20055;-96
2023/05/15 03:05:41;;;;;;;0.85;0.63;;;;;;;11.08;100.00;99136.66;4863544;29;20524;-95
2023/05/15 03:08:06;;;;;;;0.93;0.68;;;;;;;11.15;100.00;99155.03;4896693;29;20495;-95
2023/05/15 03:10:32;;;;;;;0.88;0.70;;;;;;;11.12;100.00;99153.94;4866346;29;20481;-94
2023/05/15 03:12:58;;;;;;;1.98;1.73;;;;;;;10.99;100.00;99136.69;4870698;29;20492;-95
2023/05/15 03:15:24;;;;;;;2.33;0.85;;;;;;;11.11;100.00;99144.09;4869434;29;20051;-95
2023/05/15 03:17:50;;;;;;;2.60;0.55;;;;;;;11.07;100.00;99143.47;4870311;29;20112;-95
2023/05/15 03:20:16;;;;;;;0.55;0.55;;;;;;;11.00;100.00;99131.91;4872963;29;20048;-95
2023/05/15 03:22:41;;;;;;;0.93;0.75;;;;;;;11.03;100.00;99133.75;4880235;29;20105;-94
2023/05/15 03:25:09;;;;;;;0.10;0.10;;;;;;;11.19;100.00;99150.09;4879250;29;20124;-95
2023/05/15 03:27:35;;;;;;;0.38;0.38;;;;;;;10.89;100.00;99107.38;4871382;29;20063;-94
2023/05/15 03:30:02;;;;;;;0.22;0.22;;;;;;;11.18;100.00;99146.53;4865943;29;20048;-95
2023/05/15 03:32:27;;;;;;;0.40;0.40;;;;;;;11.23;100.00;99148.72;4866046;29;20040;-95
2023/05/15 03:34:53;;;;;;;0.47;0.47;;;;;;;11.21;100.00;99156.72;4880668;29;20051;-96
2023/05/15 03:37:19;;;;;;;2.42;1.52;;;;;;;11.06;100.00;99130.03;4868764;29;20593;-95
2023/05/15 03:39:45;;;;;;;0.93;0.75;;;;;;;11.18;100.00;99152.09;4885627;29;20520;-93
2023/05/15 03:42:11;;;;;;;0.35;0.25;;;;;;;11.05;100.00;99129.25;4868917;29;20036;-95
2023/05/15 03:44:37;;;;;;;0.73;0.73;;;;;;;11.14;100.00;99131.28;4867175;29;20039;-94
2023/05/15 03:47:03;;;;;;;0.60;0.60;;;;;;;11.04;100.00;99119.38;4865746;29;20040;-94
2023/05/15 03:49:28;;;;;;;0.77;0.77;;;;;;;11.06;100.00;99125.25;4883691;29;20048;-95
2023/05/15 03:51:56;;;;;;;0.60;0.60;;;;;;;11.23;100.00;99136.84;4866920;29;20047;-96
2023/05/15 03:54:22;;;;;;;0.65;0.35;;;;;;;11.20;100.00;99123.88;4864289;29;20048;-94
2023/05/15 03:56:50;;;;;;;0.73;0.73;;;;;;;11.22;100.00;99144.38;4867131;29;20143;-95
2023/05/15 03:59:21;;;;;;;0.60;0.60;;;;;;;11.07;100.00;99120.50;4881229;29;20048;-96
2023/05/15 04:01:47;;;;;;;0.47;0.47;;;;;;;11.18;100.00;99138.22;4866485;29;20048;-95
2023/05/15 04:04:13;;;;;;;1.55;1.00;;;;;;;11.22;100.00;99118.63;4871934;29;20398;-94
2023/05/15 04:06:47;;;;;;;0.93;0.90;;;;;;;11.11;100.00;99119.09;4879630;29;20139;-95
2023/05/15 04:09:13;;;;;;;0.15;0.15;;;;;;;11.31;100.00;99151.16;4859256;29;20433;-94
2023/05/15 04:11:39;;;;;;;0.63;0.32;;;;;;;11.31;100.00;99140.84;4882645;29;20049;-95
2023/05/15 04:14:04;;;;;;;1.20;1.10;;;;;;;11.32;100.00;99130.50;4865718;29;20046;-95
2023/05/15 04:16:30;;;;;;;1.77;1.65;;;;;;;11.32;100.00;99142.38;4865837;29;20055;-93
2023/05/15 04:18:56;;;;;;;0.15;0.10;;;;;;;11.34;100.00;99139.13;4880214;29;20048;-94
2023/05/15 04:21:25;;;;;;;0.75;0.75;;;;;;;11.41;100.00;99141.59;4873674;29;20040;-95
2023/05/15 04:23:50;;;;;;;0.40;0.40;;;;;;;11.20;100.00;99113.53;4882251;29;20508;-95
2023/05/15 04:26:16;;;;;;;0.88;0.88;;;;;;;11.28;100.00;99114.00;4893080;29;20132;-93
2023/05/15 04:28:42;;;;;;;0.93;0.93;;;;;;;11.19;100.00;99106.47;4870195;29;20404;-94
2023/05/15 04:31:07;;;;;;;8.63;0.90;;;;;;;11.42;100.00;99151.47;4859564;29;20520;-94
2023/05/15 04:33:33;;;;;;;1.92;1.75;;;;;;;11.45;100.00;99154.09;4862769;29;20136;-95
2023/05/15 04:35:59;;;;;;;1.23;1.17;;;;;;;11.47;100.00;99154.41;4864339;29;20465;-95
2023/05/15 04:38:25;;;;;;;1.75;0.52;;;;;;;11.39;100.00;99141.28;4863824;29;20052;-95
2023/05/15 04:40:50;;;;;;;1.08;1.02;;;;;;;11.40;100.00;99131.75;4887053;29;20099;-95
2023/05/15 04:43:16;;;;;;;0.20;0.20;;;;;;;11.63;100.00;99167.97;4863617;29;20040;-93
2023/05/15 04:45:42;;;;;;;0.90;0.90;;;;;;;11.51;100.00;99149.47;4888297;29;20037;-95
2023/05/15 04:48:08;;;;;;;0.10;0.10;;;;;;;11.50;100.00;99141.59;4866105;29;20040;-95
2023/05/15 04:50:34;;;;;;;0.40;0.38;;;;;;;11.51;100.00;99120.91;4880581;29;20067;-95
2023/05/15 04:53:00;;;;;;;0.80;0.80;;;;;;;11.87;100.00;99170.88;4867938;29;20074;-95
2023/05/15 04:55:25;;;;;;;0.85;0.35;;;;;;;11.69;100.00;99140.31;4869210;29;20044;-95
2023/05/15 04:57:52;;;;;;;0.88;0.88;;;;;;;11.84;100.00;99157.16;4867671;29;20125;-94
2023/05/15 05:00:17;;;;;;;0.57;0.57;;;;;;;12.07;100.00;99190.59;4880603;29;20064;-94
2023/05/15 05:02:44;;;;;;;0.95;0.30;;;;;;;11.83;100.00;99159.16;4870027;29;20049;-95
2023/05/15 05:05:10;;;;;;;0.20;0.20;;;;;;;11.89;100.00;99151.72;4887455;29;20044;-94
2023/05/15 05:07:35;;;;;;;1.30;0.90;;;;;;;12.11;100.00;99179.31;4885509;29;20169;-95
2023/05/15 05:10:03;;;;;;;0.65;0.65;;;;;;;12.10;100.00;99175.75;4886475;29;20088;-95
2023/05/15 05:12:28;;;;;;;0.28;0.28;;;;;;;12.10;100.00;99167.41;4863388;29;20098;-94
2023/05/15 05:14:55;;;;;;;0.57;0.52;;;;;;;12.19;100.00;99179.75;4865141;29;20076;-94
2023/05/15 05:17:21;;;;;;;0.75;0.75;;;;;;;12.25;100.00;99183.44;4864703;29;20491;-94
2023/05/15 05:19:48;;;;;;;1.17;0.95;;;;;;;11.96;100.00;99140.28;4875687;29;20048;-95
2023/05/15 05:22:14;;;;;;;0.55;0.55;;;;;;;12.35;100.00;99187.72;4890200;29;20039;-95
2023/05/15 05:24:39;;;;;;;3.25;0.75;;;;;;;12.34;100.00;99175.03;4856754;29;20055;-96
2023/05/15 05:27:05;;;;;;;0.65;0.65;;;;;;;12.56;100.00;99195.06;4867922;29;20040;-92
2023/05/15 05:29:31;;;;;;;0.93;0.85;;;;;;;12.51;100.00;99179.78;4866001;29;20504;-91
2023/05/15 05:31:57;;;;;;;0.75;0.55;;;;;;;12.69;100.00;99192.06;4863491;29;20493;-94
2023/05/15 05:34:25;;;;;;;0.47;0.47;;;;;;;12.79;100.00;99202.66;4867646;29;20103;-93
2023/05/15 05:36:51;;;;;;;0.98;0.98;;;;;;;12.87;100.00;99198.28;4868569;29;20048;-95
2023/05/15 05:39:20;;;;;;;0.68;0.65;;;;;;;12.88;100.00;99183.13;4867508;29;20062;-95
2023/05/15 05:41:45;;;;;;;2.63;1.25;;;;;;;12.79;100.00;99183.19;4864005;29;20397;-95
2023/05/15 05:44:11;;;;;;;0.20;0.20;;;;;;;12.62;100.00;99157.00;4866645;29;20088;-93
2023/05/15 05:46:37;;;;;;;1.25;1.25;;;;;;;12.90;100.00;99165.97;4869586;29;20179;-93
2023/05/15 05:49:02;;;;;;;0.60;0.60;;;;;;;12.79;100.00;99149.00;4893234;29;20072;-96
2023/05/15 05:51:28;;;;;;;1.88;1.70;;;;;;;12.86;100.00;99157.78;4881446;29;20424;-96
2023/05/15 05:53:53;;;;;;;0.65;0.63;;;;;;;13.02;100.00;99167.75;4868812;29;20039;-94
2023/05/15 05:56:20;;;;;;;1.60;1.33;;;;;;;13.07;100.00;99167.84;4875011;29;20520;-95
2023/05/15 05:58:46;;;;;;;1.15;1.05;;;;;;;13.27;100.00;99183.97;4881531;29;20045;-95
2023/05/15 06:01:11;;;;;;;0.68;0.68;;;;;;;13.40;100.00;99186.50;4882195;29;20419;-95
2023/05/15 06:03:38;;;;;;;0.28;0.28;;;;;;;13.31;100.00;99167.84;4870208;29;20044;-95
2023/05/15 06:06:04;;;;;;;1.17;1.08;;;;;;;13.47;100.00;99181.31;4884026;29;20044;-95
2023/05/15 06:08:30;;;;;;;0.73;0.55;;;;;;;13.41;100.00;99149.03;4869119;29;20040;-95
2023/05/15 06:10:55;;;;;;;0.57;0.55;;;;;;;13.44;100.00;99160.00;4886432;29;20055;-94
2023/05/15 06:13:21;;;;;;;1.05;0.85;;;;;;;13.51;100.00;99170.75;4879278;29;20036;-94
2023/05/15 06:15:47;;;;;;;1.10;0.90;;;;;;;13.58;100.00;99158.50;4869487;29;20525;-95
2023/05/15 06:18:13;;;;;;;0.40;0.38;;;;;;;14.03;100.00;99185.16;4869057;29;20044;-95
2023/05/15 06:20:38;;;;;;;0.52;0.52;;;;;;;14.00;100.00;99188.88;4898670;29;20130;-95
2023/05/15 06:23:04;;;;;;;0.68;0.68;;;;;;;13.87;100.00;99180.78;4880784;29;20052;-93
2023/05/15 06:25:30;;;;;;;0.20;0.20;;;;;;;13.74;100.00;99169.19;4890879;29;20040;-95
2023/05/15 06:27:55;;;;;;;0.45;0.45;;;;;;;13.69;100.00;99155.91;4878248;29;20050;-95
2023/05/15 06:30:21;;;;;;;0.30;0.30;;;;;;;13.82;100.00;99184.28;4872379;29;20051;-95
2023/05/15 06:32:47;;;;;;;0.35;0.35;;;;;;;13.93;100.00;99190.03;4893301;29;20116;-95
2023/05/15 06:35:12;;;;;;;0.43;0.43;;;;;;;14.03;100.00;99204.66;4882078;29;20516;-95
2023/05/15 06:37:38;;;;;;;0.20;0.20;;;;;;;13.78;100.00;99183.69;4881489;29;20059;-95
2023/05/15 06:40:05;;;;;;;1.38;1.27;;;;;;;13.69;100.00;99185.78;4879973;29;20051;-95
2023/05/15 06:42:30;;;;;;;0.68;0.68;;;;;;;13.75;100.00;99179.06;4893171;29;20103;-94
2023/05/15 06:44:56;;;;;;;1.17;1.00;;;;;;;13.78;100.00;99182.91;4882334;29;20069;-95
2023/05/15 06:47:21;;;;;;;0.82;0.82;;;;;;;13.69;100.00;99180.22;4884386;29;20040;-94
2023/05/15 06:49:47;;;;;;;1.05;1.00;;;;;;;13.74;100.00;99194.25;4884166;29;20480;-95
2023/05/15 06:52:13;;;;;;;0.13;0.13;;;;;;;13.86;100.00;99201.59;4873764;29;20044;-95
2023/05/15 06:54:42;;;;;;;0.73;0.63;;;;;;;13.91;100.00;99203.69;4880131;29;20072;-95
2023/05/15 06:57:07;;;;;;;0.57;0.57;;;;;;;13.91;100.00;99214.09;4864559;29;20806;-95
2023/05/15 06:59:34;;;;;;;0.45;0.28;;;;;;;13.85;100.00;99225.13;4893629;29;20040;-95
2023/05/15 07:02:03;;;;;;;0.20;0.20;;;;;;;13.76;100.00;99222.41;4872332;29;20075;-93
2023/05/15 07:04:29;;;;;;;0.10;0.10;;;;;;;13.87;100.00;99247.69;4891720;29;20083;-95
2023/05/15 07:06:55;;;;;;;0.65;0.43;;;;;;;13.68;100.00;99234.41;4870872;29;20529;-95
2023/05/15 07:09:21;;;;;;;0.40;0.40;;;;;;;13.56;100.00;99227.84;4873620;29;20050;-96
2023/05/15 07:11:47;;;;;;;0.25;0.25;;;;;;;13.44;100.00;99209.38;4885360;29;20124;-95
2023/05/15 07:14:13;;;;;;;0.50;0.43;;;;;;;13.65;100.00;99224.22;4878814;29;20056;-95
2023/05/15 07:16:38;;;;;;;0.22;0.20;;;;;;;13.73;100.00;99226.16;4898062;29;20107;-93
2023/05/15 07:19:04;;;;;;;0.32;0.32;;;;;;;13.95;100.00;99245.34;4866447;29;20079;-95
2023/05/15 07:21:30;;;;;;;0.10;0.10;;;;;;;13.93;100.00;99239.44;4892860;29;20591;-94
2023/05/15 07:23:55;;;;;;;0.22;0.13;;;;;;;14.04;100.00;99239.66;4878881;29;20040;-94
2023/05/15 07:26:21;;;;;;;0.05;0.05;;;;;;;14.09;100.00;99229.84;4884261;29;20044;-94
2023/05/15 07:28:47;;;;;;;0.30;0.30;;;;;;;13.98;100.00;99233.22;4880178;29;20087;-93
2023/05/15 07:31:21;;;;;;;0.00;0.00;;;;;;;13.88;100.00;99201.84;4878474;29;20056;-95
2023/05/15 07:33:47;;;;;;;0.75;0.65;;;;;;;13.88;100.00;99215.78;4865673;29;20060;-95
2023/05/15 07:36:13;;;;;;;0.55;0.55;;;;;;;13.76;100.00;99211.25;4884225;29;20058;-94
2023/05/15 07:38:38;;;;;;;0.52;0.52;;;;;;;13.90;100.00;99235.63;4869399;29;20040;-95
2023/05/15 07:41:04;;;;;;;0.17;0.17;;;;;;;13.90;100.00;99241.19;4876566;29;20080;-95
2023/05/15 07:43:30;;;;;;;0.00;0.00;;;;;;;13.87;100.00;99225.41;4879347;29;20044;-94
2023/05/15 07:45:56;;;;;;;0.50;0.50;;;;;;;14.07;100.00;99232.34;4885014;29;20032;-94
2023/05/15 07:48:21;;;;;;;0.80;0.80;;;;;;;14.15;100.00;99227.94;4872593;29;20052;-95
2023/05/15 07:50:51;;;;;;;0.63;0.43;;;;;;;14.33;100.00;99244.47;4866446;29;20040;-95
2023/05/15 07:53:17;;;;;;;1.10;0.90;;;;;;;14.35;100.00;99253.16;4885780;29;20043;-95
2023/05/15 07:55:43;;;;;;;1.17;1.08;;;;;;;14.31;100.00;99203.13;4872074;29;20398;-94
2023/05/15 07:58:08;;;;;;;0.00;0.00;;;;;;;14.32;100.00;99199.06;4884877;29;20139;-95
2023/05/15 08:00:35;;;;;;;0.73;0.73;;;;;;;14.64;100.00;99241.22;4869166;29;20126;-95
2023/05/15 08:03:00;;;;;;;0.30;0.30;;;;;;;14.75;100.00;99235.78;4880677;29;20052;-94
2023/05/15 08:05:26;;;;;;;0.52;0.30;;;;;;;14.97;100.00;99241.69;4882211;29;20054;-95
2023/05/15 08:07:51;;;;;;;0.30;0.30;;;;;;;15.20;100.00;99242.78;4864046;29;20052;-94
2023/05/15 08:10:17;;;;;;;0.52;0.52;;;;;;;15.35;100.00;99240.69;4864738;29;20104;-95
2023/05/15 08:12:46;;;;;;;1.45;1.17;;;;;;;15.66;100.00;99251.25;4863819;29;20340;-96
2023/05/15 08:15:12;;;;;;;0.00;0.00;;;;;;;15.79;100.00;99249.63;4864820;29;20037;-94
2023/05/15 08:17:37;;;;;;;0.20;0.20;;;;;;;15.82;100.00;99220.69;4863884;29;20048;-95
2023/05/15 08:20:04;;;;;;;0.50;0.50;;;;;;;16.01;100.00;99242.75;4881670;29;20032;-93
2023/05/15 08:22:30;;;;;;;0.17;0.17;;;;;;;15.93;100.00;99213.69;4867522;29;20049;-96
2023/05/15 08:24:56;;;;;;;0.20;0.13;;;;;;;16.10;100.00;99218.16;4882166;29;20036;-95
2023/05/15 08:27:22;;;;;;;0.45;0.40;;;;;;;16.42;100.00;99255.34;4882920;29;20052;-94
2023/05/15 08:29:51;;;;;;;0.68;0.57;;;;;;;16.31;100.00;99202.06;4877553;29;20041;-96
2023/05/15 08:32:17;;;;;;;0.80;0.25;;;;;;;16.59;100.00;99230.31;4853829;29;20042;-94
2023/05/15 08:34:43;;;;;;;0.30;0.30;;;;;;;16.88;100.00;99230.00;4863720;29;20045;-95
2023/05/15 08:37:09;;;;;;;0.65;0.63;;;;;;;17.22;100.00;99237.34;4877116;29;20128;-95
2023/05/15 08:39:35;;;;;;;0.93;0.88;;;;;;;17.64;100.00;99228.13;4883572;29;20075;-96
2023/05/15 08:42:22;;;;;;;0.13;0.13;;;;;;;18.26;100.00;99247.91;4870912;29;20037;-95
2023/05/15 08:44:49;;;;;;;0.10;0.10;;;;;;;18.09;100.00;99222.63;4905031;29;20052;-94
2023/05/15 08:47:15;;;;;;;0.65;0.32;;;;;;;17.97;100.00;99249.13;4873589;29;20045;-94
2023/05/15 08:50:06;;;;;;;1.10;1.10;;;;;;;18.01;100.00;99255.25;4865259;29;20090;-96
2023/05/15 08:52:32;;;;;;;2.40;0.25;;;;;;;17.81;100.00;99227.41;4881768;29;20055;-95
2023/05/15 08:54:59;;;;;;;0.20;0.20;;;;;;;18.21;100.00;99226.19;4882263;29;20128;-95
2023/05/15 08:57:26;;;;;;;0.30;0.25;;;;;;;18.90;100.00;99256.09;4865202;29;20048;-96
2023/05/15 08:59:53;;;;;;;0.32;0.32;;;;;;;19.22;100.00;99276.22;4866464;29;20048;-95
2023/05/15 09:02:19;;;;;;;19.83;0.55;;;;;;;19.53;100.00;99270.28;4865917;29;20049;-95
2023/05/15 09:04:44;;;;;;;0.03;0.03;;;;;;;19.31;100.00;99244.25;4866532;29;20040;-95
2023/05/15 09:07:11;;;;;;;0.15;0.15;;;;;;;19.32;100.00;99257.03;4879910;29;20044;-94
2023/05/15 09:09:36;;;;;;;0.10;0.10;;;;;;;19.09;100.00;99240.22;4863381;29;20041;-95
2023/05/15 09:12:03;;;;;;;0.10;0.10;;;;;;;19.41;100.00;99240.63;4880596;29;20532;-95
2023/05/15 09:14:28;;;;;;;0.00;0.00;;;;;;;19.72;100.00;99261.28;4867677;29;20055;-95
2023/05/15 09:16:54;;;;;;;0.08;0.08;;;;;;;19.81;100.00;99275.81;4882455;29;20028;-96
2023/05/15 09:19:21;;;;;;;0.45;0.40;;;;;;;19.30;100.00;99260.34;4865302;29;20056;-94
2023/05/15 09:21:46;;;;;;;0.08;0.08;;;;;;;18.89;100.00;99259.41;4879780;29;20160;-96
2023/05/15 09:24:23;;;;;;;0.32;0.32;;;;;;;18.25;100.00;99246.38;4863748;29;20511;-93
2023/05/15 09:27:06;;;;;;;0.28;0.25;;;;;;;18.14;100.00;99252.75;4864266;29;20521;-95
2023/05/15 09:29:33;;;;;;;0.13;0.13;;;;;;;18.22;100.00;99259.38;4860525;29;20080;-94
2023/05/15 09:32:07;;;;;;;0.80;0.43;;;;;;;18.33;100.00;99253.00;4872497;29;20049;-94
2023/05/15 09:34:34;;;;;;;0.10;0.10;;;;;;;18.72;100.00;99250.25;4860203;29;20041;-96
2023/05/15 09:37:01;;;;;;;0.00;0.00;;;;;;;18.98;100.00;99268.34;4858584;29;20049;-93
2023/05/15 09:39:26;;;;;;;0.10;0.10;;;;;;;19.33;100.00;99264.22;4864091;29;20041;-95
2023/05/15 09:41:53;;;;;;;0.00;0.00;;;;;;;19.37;100.00;99257.00;4879531;29;20486;-95
2023/05/15 09:44:26;;;;;;;0.57;0.45;;;;;;;19.35;100.00;99262.41;4880193;29;20544;-95
2023/05/15 09:46:52;;;;;;;0.20;0.20;;;;;;;18.79;100.00;99216.00;4863777;29;20056;-95
2023/05/15 09:49:20;;;;;;;0.00;0.00;;;;;;;18.74;100.00;99265.31;4879630;29;20032;-94
2023/05/15 09:51:47;;;;;;;0.10;0.10;;;;;;;18.53;100.00;99273.22;4866957;29;20501;-95
2023/05/15 09:54:15;;;;;;;0.32;0.32;;;;;;;18.22;100.00;99248.16;4874670;29;20037;-95
2023/05/15 09:56:46;;;;;;;0.28;0.15;;;;;;;18.16;100.00;99255.78;4863463;29;20497;-94
2023/05/15 09:59:13;;;;;;;0.10;0.10;;;;;;;18.01;100.00;99277.69;4862485;29;20052;-96
2023/05/15 10:01:42;;;;;;;0.03;0.03;;;;;;;17.79;100.00;99274.84;4863762;29;20071;-95
2023/05/15 10:04:08;;;;;;;0.00;0.00;;;;;;;17.58;100.00;99274.25;4874765;29;20053;-94
2023/05/15 10:06:38;;;;;;;0.35;0.32;;;;;;;17.27;100.00;99264.63;4858590;29;20544;-93
2023/05/15 10:09:05;;;;;;;0.20;0.10;;;;;;;16.99;100.00;99246.13;4865962;29;20188;-94
2023/05/15 10:11:35;;;;;;;0.00;0.00;;;;;;;17.10;100.00;99280.59;4866296;29;20097;-94
2023/05/15 10:14:12;;;;;;;0.82;0.77;;;;;;;16.79;100.00;99258.97;4878670;29;20158;-95
2023/05/15 10:16:39;;;;;;;0.32;0.32;;;;;;;16.97;100.00;99271.06;4878536;29;20041;-95
2023/05/15 10:19:09;;;;;;;0.40;0.30;;;;;;;17.04;100.00;99265.00;4913820;29;20112;-96
2023/05/15 10:21:40;;;;;;;0.77;0.40;;;;;;;16.97;100.00;99259.88;4885791;29;20053;-95
2023/05/15 10:24:06;;;;;;;0.17;0.17;;;;;;;17.29;100.00;99288.59;4882192;29;20140;-95
2023/05/15 10:26:38;;;;;;;0.57;0.43;;;;;;;17.58;100.00;99280.63;4880161;29;20125;-93
2023/05/15 10:29:15;;;;;;;0.73;0.30;;;;;;;17.69;100.00;99268.69;4870475;29;20053;-96
2023/05/15 10:31:41;;;;;;;0.38;0.38;;;;;;;17.78;100.00;99248.84;4867122;29;20047;-95
2023/05/15 10:34:08;;;;;;;0.10;0.10;;;;;;;18.04;100.00;99268.25;4899284;29;20151;-94
2023/05/15 10:36:36;;;;;;;4.05;0.82;;;;;;;18.13;100.00;99279.25;4871081;29;20048;-95
2023/05/15 10:39:03;;;;;;;0.17;0.17;;;;;;;17.75;100.00;99260.28;4888160;29;20037;-94
2023/05/15 10:41:29;;;;;;;0.47;0.47;;;;;;;17.81;100.00;99269.47;4883243;29;20143;-95
2023/05/15 10:43:59;;;;;;;0.73;0.45;;;;;;;17.62;100.00;99269.94;4875184;29;20049;-95
2023/05/15 10:46:26;;;;;;;0.17;0.17;;;;;;;17.77;100.00;99258.50;4893160;29;20032;-95
2023/05/15 10:48:51;;;;;;;1.42;0.63;;;;;;;17.49;100.00;99249.97;4866647;29;20040;-95
2023/05/15 10:51:23;;;;;;;0.93;0.68;;;;;;;17.38;100.00;99246.34;4893443;29;20385;-96
2023/05/15 10:53:50;;;;;;;0.28;0.28;;;;;;;17.27;100.00;99261.06;4863177;29;20063;-96
2023/05/15 10:56:16;;;;;;;0.10;0.10;;;;;;;17.22;100.00;99256.22;4864630;29;20041;-94
2023/05/15 10:58:46;;;;;;;0.40;0.32;;;;;;;17.21;100.00;99263.06;4871468;29;20211;-95
2023/05/15 11:01:30;;;;;;;0.20;0.20;;;;;;;16.81;100.00;99247.28;4870346;29;20049;-94
2023/05/15 11:04:16;;;;;;;0.98;0.32;;;;;;;16.44;100.00;99247.22;4864608;29;20056;-95
2023/05/15 11:06:44;;;;;;;0.35;0.32;;;;;;;16.09;100.00;99244.63;4865662;29;20080;-94
2023/05/15 11:09:34;;;;;;;0.25;0.25;;;;;;;16.42;100.00;99260.19;4878083;29;20045;-94
2023/05/15 11:12:04;;;;;;;0.17;0.17;;;;;;;16.52;100.00;99253.91;4852639;29;20063;-94
2023/05/15 11:14:32;;;;;;;0.10;0.10;;;;;;;16.42;100.00;99241.34;4886170;29;20091;-96
2023/05/15 11:16:59;;;;;;;0.45;0.20;;;;;;;16.60;100.00;99255.03;4905432;29;20040;-92
2023/05/15 11:19:28;;;;;;;0.20;0.20;;;;;;;16.61;100.00;99255.78;4888960;29;20044;-94
2023/05/15 11:22:15;;;;;;;1.05;0.77;;;;;;;16.37;100.00;99264.47;4890736;29;20528;-94
2023/05/15 11:24:57;;;;;;;0.45;0.45;;;;;;;16.42;100.00;99271.38;4861415;29;20052;-94
2023/05/15 11:27:32;;;;;;;0.35;0.35;;;;;;;16.55;100.00;99272.50;4887714;29;20101;-94